Nicolò Giuliani

Recruteur en chef - Inter
3 Déc 2028
Dimanche
Processus

Personnalité

Adaptabilité (6) Ambition (4) Controverse (11) Loyauté (1) Pression (17) Professionnalisme (5) Sportivité (19) Tempérament (17)

Profil

Style d'entraînement Démocratique
Diplôme Continental B
Détermination 6
Gestion des joueurs 11
Motivation 9
Discipline 14
Satisfaction professionnelle
100%
Fatigue
0%
Rôle Recruteur en chef
Salaire 66.2K p/s
Contrat 14.03.2029

Performance

Comportement Bon
Efficacité de l'entraînement
51%
Développement des joueurs
80%
Prévention des blessures
50%
Mise en place tactique
80%

Événements récents

A participé à une réunion de recrutement maintenant
A participé à une réunion de recrutement maintenant
A recommandé une cible de transfert maintenant
A recommandé une cible de transfert maintenant
A recommandé une cible de transfert maintenant
A recommandé une cible de transfert maintenant
A recommandé une cible de transfert 7j
A recommandé une cible de transfert 7j

Suivi en cours

111
Joueur Club Statut Capacité Confiance Observé Dernière observation Dernier vote
Alexander Isak Liverpool Actif 177 / 178 40% 1 14.08.2028 -
Jérémy Doku Manchester City Actif 176 / 173 40% 1 14.08.2028 -
Enzo Fernández Manchester City Actif 174 / 175 40% 2 31.07.2028 -
Federico Dimarco Manchester City Actif 168 / 166 40% 1 31.07.2028 -
Adam Wharton Crystal Palace Actif 165 / 164 40% 1 17.07.2028 -
Tino Livramento Newcastle United Perdu 169 / 166 40% 1 17.07.2028 -
Ousmane Diomande Nottingham Forest Actif 159 / 162 40% 1 17.07.2028 -
Benjamin White Arsenal Actif 166 / 161 40% 1 10.07.2028 -
Caoimhin Kelleher Brentford Actif 160 / 157 40% 2 01.06.2028 -
Alex Meret Napoli Actif 159 / 154 40% 1 01.06.2028 -
Gianluigi Donnarumma AS Roma Négociation 166 / 173 40% 1 01.06.2028 -
Sandro Tonali Tottenham Perdu 176 / 175 40% 1 31.05.2028 -
Ryan Gravenberch Liverpool Actif 167 / 164 40% 1 31.05.2028 -
Omar Marmoush Manchester City Actif 173 / 170 40% 1 31.05.2028 -
Daniel Banjaqui Benfica Actif 123 / 129 40% 11 29.05.2028 -
Ayden Heaven Portsmouth Actif 143 / 151 40% 15 29.05.2028 -
Noahkai Banks FC Augsburg Actif 138 / 144 40% 8 29.05.2028 -
Bade Aluko Leicester City Actif 124 / 124 40% 6 27.05.2028 -
Tobías Ramírez River Plate Actif 135 / 132 40% 9 24.05.2028 -
Jan Bürger Northampton Town Actif 118 / 123 40% 9 24.05.2028 -
Jorthy Mokio ADO Den Haag Actif 134 / 136 40% 10 23.05.2028 -
Josh Nichols Oldham Athletic Actif 122 / 125 40% 5 23.05.2028 -
Giovanni Leoni Lincoln City Actif 142 / 143 40% 8 23.05.2028 -
Ezra Mayers West Ham United Actif 126 / 127 40% 15 11.05.2028 -
Luka Vušković Tottenham Actif 144 / 151 40% 24 10.05.2028 -
Trey Nyoni Rotherham United Actif 138 / 145 40% 7 10.05.2028 -
Christos Mouzakitis Hull City Actif 140 / 140 40% 4 09.05.2028 -
Josh Acheampong Everton Actif 144 / 147 40% 22 26.04.2028 -
Halam Loboa Sevilla Actif 127 / 130 40% 21 07.04.2028 -
Thiago Silvero Vélez Actif 131 / 133 40% 4 07.04.2028 -
Jason Witsel PSV Actif 122 / 127 40% 4 11.03.2028 -
Jofre Torrents Ajax Actif 128 / 132 40% 4 27.02.2028 -
Eric da Silva Moreira Nottingham Forest Actif 128 / 128 40% 5 24.02.2028 -
Almugera Kabar Borussia Dortmund Actif 128 / 127 40% 3 15.02.2028 -
Yoram Zague Paris Saint-Germain Actif 126 / 129 40% 2 10.02.2028 -
Mats Rots TSG Hoffenheim Actif 125 / 134 40% 1 08.02.2028 -
Niccolò Fortini Fiorentina Actif 132 / 140 40% 12 01.02.2028 -
Lucas Bergvall Tottenham Actif 155 / 154 40% 8 23.01.2028 -
Moise Kean Fiorentina Actif 165 / 153 40% 1 12.01.2028 -
Giacomo Raspadori Atalanta Perdu 159 / 151 40% 1 12.01.2028 -
Martin Baturina Como Perdu 143 / 147 40% 2 02.01.2028 -
Devyne Rensch Virtus Entella Actif 144 / 145 40% 1 02.01.2028 -
Marco Carnesecchi Club America Actif 153 / 153 95% 1 01.01.2028 Approuver
Mao Hosoya Santos Actif 134 / 135 67% 1 01.01.2028 Approuver
Gabri Veiga Getafe Actif 147 / 149 69% 1 01.01.2028 Approuver
Riccardo Orsolini Bologna Actif 161 / 154 72% 1 01.01.2028 Approuver
Victor Hernandez Santa Fe Actif 130 / 122 40% 9 22.12.2027 -
Malick Yalcouyé Brighton Actif 127 / 134 40% 12 08.11.2027 -
Elias Baum Eintracht Frankfurt Actif 132 / 133 40% 3 16.10.2027 -
Eliás Montiel Borussia Dortmund Actif 138 / 138 40% 10 23.09.2027 -
Matias Siltanen Malmo FF Actif 114 / 121 40% 7 09.09.2027 -
Exequiel Palacios Lazio Actif 166 / 166 40% 1 30.08.2027 -
Manu Koné AS Roma Actif 164 / 163 40% 1 30.08.2027 -
Wesley AS Roma Actif 142 / 150 40% 21 13.07.2027 -
Nathaniel Brown Bayern Munich Actif 146 / 149 40% 1 06.07.2027 -
Enzo Millot Al-Ahli Actif 143 / 154 40% 1 06.07.2027 -
Tomás Pérez Porto Actif 125 / 122 40% 2 20.06.2027 -
Francisco Trincão Inter Actif 156 / 156 66% 1 01.06.2027 Approuver
Malo Gusto Chelsea Actif 155 / 149 40% 14 29.05.2027 -
Eduardo Lozano Botafogo Actif 151 / 142 40% 1 22.05.2027 -
Savinho Tottenham Actif 153 / 157 40% 11 18.05.2027 -
Diego Gómez Brighton Actif 147 / 143 40% 21 13.05.2027 -
Kobbie Mainoo Manchester United Actif 155 / 155 40% 17 07.05.2027 -
Mathys Tel Tottenham Actif 141 / 148 40% 3 05.05.2027 -
Kenneth Taylor Lazio Actif 145 / 156 40% 13 02.05.2027 -
Bence Dárdai VfL Wolfsburg Actif 135 / 133 40% 1 21.04.2027 -
Arthur Atta Fiorentina Actif 133 / 139 40% 1 08.02.2027 -
Raúl Rangel Braga Actif 132 / 132 66% 1 01.01.2027 Approuver
Louis Leroux FC Nantes Actif 119 / 128 40% 4 29.12.2026 -
Abdoulkarim Traoré Al Ain Actif 120 / 134 40% 2 29.12.2026 -
Riyad Idrissi Cagliari Actif 128 / 125 40% 9 27.12.2026 -
David Ozoh Derby County Actif 121 / 128 40% 5 23.12.2026 -
Andrea Pinamonti Lazio Actif 129 / 131 40% 3 20.12.2026 -
Mile Svilar AS Roma Actif 159 / 157 40% 2 15.12.2026 Plus d'infos
Ivo Mammini Beitar Jerusalem Actif 122 / 129 40% 1 11.12.2026 -
Armstrong Oko-Flex Levski Actif 131 / 114 40% 1 06.12.2026 -
Sota Kitano Red Bull Salzburg Actif 129 / 126 40% 1 05.12.2026 -
Nikita Stoinov Dinamo Bucharest Actif 124 / 134 40% 1 26.11.2026 -
Sergi Domínguez Dinamo Zagreb Actif 125 / 128 40% 3 25.11.2026 -
Elia Caprile Cagliari Actif 134 / 147 40% 1 24.11.2026 -
Giorgi Kvernadze Frosinone Actif 127 / 129 40% 1 17.11.2026 -
Donyell Malen AS Roma Actif 145 / 145 40% 1 03.11.2026 -
Martín Ojeda Orlando City Actif 129 / 131 40% 1 01.11.2026 -
Nicolò Zaniolo Udinese Actif 149 / 146 40% 1 27.10.2026 -
Matheus Cunha Manchester United Actif 160 / 156 40% 2 25.10.2026 -
Tyrese Campbell Sheffield United Actif 120 / 129 40% 2 25.10.2026 -
Gabriel Martinelli Arsenal Actif 162 / 164 40% 3 25.10.2026 -
Nico O'Reilly Manchester City Actif 148 / 153 40% 6 23.10.2026 -
Nicolas Jackson Aston Villa Actif 140 / 141 40% 2 23.10.2026 -
Mbekezeli Mbokazi Chicago Fire Actif 112 / 121 40% 2 21.10.2026 -
Vitinha Genoa Actif 126 / 133 40% 1 21.10.2026 -
Antoine Semenyo Manchester City Actif 151 / 159 40% 1 21.10.2026 -
Kyriani Sabbe Club Brugge Actif 122 / 124 40% 1 15.10.2026 -
Lautaro Vargas Unión de Santa Fe Actif 116 / 119 40% 1 10.10.2026 -
Mohamed-Ali Cho Hull City Actif 132 / 140 40% 1 08.10.2026 -
Kévin Denkey FC Cincinnati Actif 123 / 122 40% 1 08.10.2026 -
Morgan Rogers Chelsea Actif 156 / 156 40% 2 07.10.2026 -
Talles Magno New York City Actif 139 / 127 40% 1 07.10.2026 -
John Pulskamp Sporting Kansas City Actif 112 / 116 40% 1 06.10.2026 -
Caleb Yirenkyi Coventry City Actif 126 / 136 40% 4 01.10.2026 -
Stefano Di Mario Virtus Entella Actif 115 / 131 40% 1 28.09.2026 -
Ignacio Perruzzi San Lorenzo Actif 114 / 138 40% 1 23.09.2026 -
Iván Fresneda Sporting CP Actif 135 / 144 40% 1 21.09.2026 -
Mathias De Amorim Famalicao Actif 135 / 138 40% 1 18.09.2026 -
James Bacca La Equidad Actif 131 / 123 40% 1 16.09.2026 -
Lewis Hall Newcastle United Actif 141 / 152 40% 1 30.08.2026 -
Victor Froholdt Porto Actif 151 / 152 40% 1 26.08.2026 -
Rayan Cherki Manchester City Actif 159 / 168 40% 1 04.08.2026 -
Hugo Ekitiké Liverpool Actif 156 / 158 40% 2 03.08.2026 -
Bradley Barcola Liverpool Actif 162 / 156 40% 1 01.08.2026 -
Benjamin Šeško Manchester United Actif 152 / 151 40% 1 01.08.2026 -